Tire Hill, Pennsylvania
Current Conditions -  °F | °C
As of 11:27 AM on Thursday 30 Oct 2014 (Local Time) from KJST Reporting Station
Overcast Overcast  
Wind Chill: 35°   Ceiling: 1400
Heat Index: 41°   Visibility: 10mi
Dew Point: 35°   Wind: 9mph
Humidity: 79%   Direction: 300°WNW
Pressure: 30.06"   Gusts: NA
Location:  40.27°N, 78.92°W
Report Text: KJST 301527Z AUTO 30008KT 10SM BKN014 BKN020 OVC038 05/02 A3006 RMK AO2 T00500017
Loading
Personal Weather Stations






























Interactive Weather Map
Tropical Storm Tracking
New forecast layout! Learn more

10-Day Weather Forecast

Advertisements
Track Severe Weather on mobile